createdAt,value
2023-01-17T00:00:32.895Z,9.32
2023-01-17T00:03:00.190Z,7.30
2023-01-17T00:05:46.111Z,5.93
2023-01-17T00:08:45.833Z,9.10
2023-01-17T00:11:13.023Z,12.75
2023-01-17T00:13:40.214Z,10.30
2023-01-17T00:16:07.559Z,12.70
2023-01-17T00:18:34.847Z,6.53
2023-01-17T00:21:21.033Z,11.60
2023-01-17T00:24:07.110Z,11.85
2023-01-17T00:26:34.422Z,9.15
2023-01-17T00:29:02.268Z,9.13
2023-01-17T00:31:29.557Z,11.45
2023-01-17T00:33:56.675Z,15.63
2023-01-17T00:36:23.847Z,14.18
2023-01-17T00:38:51.002Z,11.75
2023-01-17T00:41:18.183Z,14.85
2023-01-17T00:44:04.226Z,17.77
2023-01-17T00:46:50.343Z,14.85
2023-01-17T00:49:36.382Z,16.15
2023-01-17T00:52:22.610Z,16.90
2023-01-17T00:55:08.537Z,17.55
2023-01-17T00:57:54.663Z,18.58
2023-01-17T01:00:40.908Z,20.55
2023-01-17T01:03:26.960Z,18.00
2023-01-17T01:06:13.176Z,18.83
2023-01-17T01:08:59.318Z,22.13
2023-01-17T01:11:45.307Z,16.15
2023-01-17T01:14:31.393Z,19.00
2023-01-17T01:17:17.529Z,15.23
2023-01-17T01:20:03.570Z,21.38
2023-01-17T01:22:49.521Z,18.58
2023-01-17T01:25:35.436Z,16.90
2023-01-17T01:28:21.494Z,12.02
2023-01-17T01:31:07.740Z,13.23
2023-01-17T01:33:35.361Z,14.23
2023-01-17T01:36:02.558Z,7.80
2023-01-17T01:38:29.806Z,8.48
2023-01-17T01:40:57.058Z,14.15
2023-01-17T02:39:52.645Z,6.53
2023-01-17T02:42:19.879Z,6.60
2023-01-17T02:44:47.054Z,8.38
2023-01-17T02:47:14.365Z,9.88
2023-01-17T02:49:41.530Z,7.10
2023-01-17T02:52:08.931Z,13.38
2023-01-17T02:54:36.138Z,5.97
2023-01-17T02:57:03.472Z,8.30
2023-01-17T02:59:30.604Z,7.03
2023-01-17T03:01:57.980Z,8.23
2023-01-17T03:04:25.364Z,7.95
2023-01-17T03:06:52.582Z,8.35
2023-01-17T03:09:19.799Z,8.95
2023-01-17T03:11:47.051Z,8.93
2023-01-17T03:14:14.233Z,5.95
2023-01-17T03:16:41.535Z,6.78
2023-01-17T03:19:09.889Z,7.93
2023-01-17T03:21:37.144Z,9.05
2023-01-17T03:24:04.345Z,9.50
2023-01-17T03:26:31.813Z,10.27
2023-01-17T03:28:58.983Z,6.55
2023-01-17T03:31:26.182Z,6.47
2023-01-17T03:33:53.400Z,10.27
2023-01-17T03:36:20.671Z,11.05
2023-01-17T03:38:47.856Z,8.70
2023-01-17T03:41:15.129Z,7.10
2023-01-17T03:43:42.313Z,8.00
2023-01-17T03:46:09.643Z,5.80
2023-01-17T03:48:36.850Z,9.27
2023-01-17T03:51:04.051Z,4.90
2023-01-17T03:53:31.253Z,5.20
2023-01-17T03:56:00.182Z,12.07
2023-01-17T03:58:27.415Z,8.25
2023-01-17T04:00:54.807Z,8.30
2023-01-17T04:03:22.399Z,6.30
2023-01-17T04:05:49.573Z,6.13
2023-01-17T04:08:16.889Z,8.63
2023-01-17T04:10:44.130Z,4.88
2023-01-17T04:13:11.306Z,5.68
2023-01-17T04:15:38.626Z,6.50
2023-01-17T04:18:05.798Z,6.63
2023-01-17T04:20:33.159Z,6.57
2023-01-17T04:23:00.382Z,5.72
2023-01-17T04:25:29.923Z,4.38
2023-01-17T04:27:57.122Z,9.68
2023-01-17T04:30:24.349Z,4.95
2023-01-17T04:32:51.570Z,4.53
2023-01-17T04:35:18.817Z,9.40
2023-01-17T04:37:45.969Z,7.47
2023-01-17T04:40:13.176Z,6.35
2023-01-17T04:42:40.506Z,13.30
2023-01-17T04:45:07.764Z,9.05
2023-01-17T04:47:35.027Z,10.95
2023-01-17T04:50:02.278Z,8.45
2023-01-17T04:52:29.509Z,6.47
2023-01-17T04:54:56.745Z,3.85
2023-01-17T04:57:25.148Z,7.72
2023-01-17T04:59:53.636Z,5.30
2023-01-17T05:02:20.910Z,5.15
2023-01-17T05:04:48.189Z,17.38
2023-01-17T05:07:15.379Z,4.38
2023-01-17T05:09:43.905Z,4.13
2023-01-17T05:12:11.093Z,7.47
